createdAt,value
2023-10-16T06:59:04.351Z,135.00
2023-10-16T07:00:05.426Z,140.62
2023-10-16T07:01:05.637Z,146.25
2023-10-16T07:02:05.569Z,151.88
2023-10-16T07:03:05.722Z,168.75
2023-10-16T07:04:05.899Z,185.62
2023-10-16T07:05:05.858Z,208.12
2023-10-16T07:06:05.937Z,230.62
2023-10-16T07:07:06.005Z,253.12
2023-10-16T07:08:06.077Z,264.38
2023-10-16T07:09:06.128Z,258.75
2023-10-16T07:10:06.239Z,258.75
2023-10-16T07:11:06.332Z,264.38
2023-10-16T07:12:06.335Z,275.62
2023-10-16T07:13:06.480Z,270.00
2023-10-16T07:14:06.533Z,247.50
2023-10-16T07:15:06.595Z,241.88
2023-10-16T07:16:06.764Z,236.25
2023-10-16T07:17:06.743Z,241.88
2023-10-16T07:18:06.915Z,253.12
2023-10-16T07:19:06.954Z,253.12
2023-10-16T07:20:06.985Z,253.12
2023-10-16T07:21:07.061Z,275.62
2023-10-16T07:22:07.151Z,298.12
2023-10-16T07:23:07.215Z,315.00
2023-10-16T07:24:07.270Z,326.25
2023-10-16T07:25:07.424Z,320.62
2023-10-16T07:26:07.466Z,298.12
2023-10-16T07:27:07.551Z,298.12
2023-10-16T07:28:07.636Z,309.38
2023-10-16T07:29:07.686Z,326.25
2023-10-16T07:30:07.807Z,326.25
2023-10-16T07:31:07.901Z,343.12
2023-10-16T07:32:07.905Z,337.50
2023-10-16T07:33:08.075Z,371.25
2023-10-16T07:34:08.124Z,450.00
2023-10-16T07:35:08.149Z,517.50
2023-10-16T07:36:08.235Z,551.25
2023-10-16T07:37:08.355Z,511.88
2023-10-16T07:38:08.365Z,444.38
2023-10-16T07:39:08.492Z,421.88
2023-10-16T07:40:08.540Z,433.12
2023-10-16T07:41:08.631Z,444.38
2023-10-16T07:42:08.692Z,455.62
2023-10-16T07:43:08.773Z,472.50
2023-10-16T07:44:08.884Z,489.38
2023-10-16T07:45:08.915Z,478.12
2023-10-16T07:46:09.055Z,466.88
2023-10-16T07:47:09.101Z,455.62
2023-10-16T07:48:09.220Z,433.12
2023-10-16T07:49:09.226Z,393.75
2023-10-16T07:50:09.264Z,354.38
2023-10-16T07:51:09.381Z,337.50
2023-10-16T07:52:09.456Z,326.25
2023-10-16T07:53:09.518Z,337.50
2023-10-16T07:54:09.597Z,354.38
2023-10-16T07:55:09.724Z,371.25
2023-10-16T07:56:09.814Z,388.12
2023-10-16T07:57:09.911Z,416.25
2023-10-16T07:58:10.036Z,444.38
2023-10-16T07:59:10.344Z,478.12
2023-10-16T08:00:10.127Z,534.38
2023-10-16T08:01:10.318Z,579.38
2023-10-16T08:02:10.311Z,585.00
2023-10-16T08:03:10.436Z,540.00
2023-10-16T08:04:10.550Z,489.38
2023-10-16T08:05:10.522Z,455.62
2023-10-16T08:06:10.661Z,438.75
2023-10-16T08:07:10.773Z,438.75
2023-10-16T08:08:10.796Z,427.50
2023-10-16T08:09:13.200Z,405.00
2023-10-16T08:10:10.973Z,410.62
2023-10-16T08:11:11.075Z,410.62
2023-10-16T08:12:11.236Z,410.62
2023-10-16T08:13:11.214Z,405.00
2023-10-16T08:14:11.274Z,405.00
2023-10-16T08:15:11.329Z,405.00
2023-10-16T08:16:11.506Z,416.25
2023-10-16T08:17:11.611Z,433.12
2023-10-16T08:18:11.815Z,455.62
2023-10-16T08:19:11.756Z,495.00
2023-10-16T08:20:11.734Z,545.62
2023-10-16T08:21:11.817Z,652.50
2023-10-16T08:22:11.985Z,663.75
2023-10-16T08:23:11.968Z,601.88
2023-10-16T08:24:14.106Z,540.00
2023-10-16T08:25:12.160Z,511.88
2023-10-16T08:26:12.183Z,495.00
2023-10-16T08:27:12.250Z,478.12
2023-10-16T08:28:12.310Z,450.00
2023-10-16T08:29:12.391Z,438.75
2023-10-16T08:30:12.457Z,450.00
2023-10-16T08:31:12.617Z,466.88
2023-10-16T08:32:12.650Z,478.12
2023-10-16T08:33:12.734Z,472.50
2023-10-16T08:34:12.825Z,466.88
2023-10-16T08:35:12.892Z,478.12
2023-10-16T08:36:12.959Z,483.75
2023-10-16T08:37:13.044Z,489.38
2023-10-16T08:38:13.111Z,500.62
2023-10-16T08:39:13.199Z,579.38
2023-10-16T08:40:13.286Z,866.25
2023-10-16T08:41:13.310Z,748.12
2023-10-16T08:42:13.394Z,646.88
2023-10-16T08:43:13.511Z,742.50
2023-10-16T08:44:13.570Z,748.12
2023-10-16T08:45:13.630Z,781.88
2023-10-16T08:46:13.788Z,793.12
2023-10-16T08:47:13.777Z,905.62
2023-10-16T08:48:13.900Z,995.62
2023-10-16T08:49:14.009Z,1203.75
2023-10-16T08:50:14.047Z,1175.62
2023-10-16T08:51:14.122Z,1310.62
2023-10-16T08:52:14.217Z,1164.38
2023-10-16T08:53:14.315Z,1333.12
2023-10-16T08:54:14.427Z,1327.50
2023-10-16T08:55:14.504Z,911.25
2023-10-16T08:56:14.588Z,855.00
2023-10-16T08:57:14.667Z,815.62
2023-10-16T08:58:14.741Z,787.50
2023-10-16T08:59:14.836Z,826.88
2023-10-16T09:00:14.959Z,832.50
2023-10-16T09:01:15.058Z,804.38
2023-10-16T09:02:15.060Z,725.62
2023-10-16T09:03:15.254Z,641.25
2023-10-16T09:04:17.967Z,551.25
2023-10-16T09:05:15.333Z,483.75
2023-10-16T09:06:15.402Z,455.62
2023-10-16T09:07:15.489Z,444.38
2023-10-16T09:08:15.555Z,427.50
2023-10-16T09:09:15.714Z,405.00
2023-10-16T09:10:15.766Z,382.50
2023-10-16T09:11:15.821Z,365.62
2023-10-16T09:12:15.882Z,365.62
2023-10-16T09:13:15.980Z,371.25
2023-10-16T09:14:16.046Z,393.75
2023-10-16T09:15:16.133Z,416.25
2023-10-16T09:16:16.236Z,444.38
2023-10-16T09:17:16.260Z,472.50
2023-10-16T09:18:16.351Z,500.62
2023-10-16T09:19:16.435Z,534.38
2023-10-16T09:20:16.544Z,573.75
2023-10-16T09:21:16.620Z,618.75
2023-10-16T09:22:16.713Z,663.75
2023-10-16T09:23:16.771Z,691.88
2023-10-16T09:24:16.882Z,691.88
2023-10-16T09:25:26.183Z,680.62
2023-10-16T09:26:17.083Z,708.75
2023-10-16T09:27:17.081Z,742.50
2023-10-16T09:28:17.168Z,798.75
2023-10-16T09:29:17.239Z,832.50
2023-10-16T09:30:17.442Z,877.50
2023-10-16T09:31:17.470Z,978.75
2023-10-16T09:32:17.594Z,956.25
2023-10-16T09:33:17.632Z,978.75
2023-10-16T09:34:17.635Z,939.38
2023-10-16T09:35:17.745Z,810.00
2023-10-16T09:36:17.801Z,843.75
2023-10-16T09:37:17.876Z,866.25
2023-10-16T09:38:17.976Z,787.50
2023-10-16T09:39:18.107Z,748.12
2023-10-16T09:40:24.348Z,742.50
2023-10-16T09:41:18.220Z,748.12
2023-10-16T09:42:18.301Z,838.12
2023-10-16T09:43:18.390Z,748.12
2023-10-16T09:44:18.491Z,781.88
2023-10-16T09:45:18.582Z,725.62
2023-10-16T09:46:18.815Z,731.25
2023-10-16T09:47:18.714Z,765.00
2023-10-16T09:48:18.812Z,776.25
2023-10-16T09:49:18.852Z,798.75
2023-10-16T09:50:18.976Z,888.75
2023-10-16T09:51:19.016Z,810.00
2023-10-16T09:52:19.142Z,883.12
2023-10-16T09:53:19.256Z,871.88
2023-10-16T09:54:19.293Z,871.88
2023-10-16T09:55:19.383Z,894.38
2023-10-16T09:56:19.489Z,916.88
2023-10-16T09:57:20.281Z,967.50
2023-10-16T09:58:19.619Z,1417.50
2023-10-16T09:59:19.681Z,1395.00
2023-10-16T10:00:19.824Z,1102.50
2023-10-16T10:01:19.908Z,1614.38
2023-10-16T10:02:19.953Z,1372.50
2023-10-16T10:03:20.053Z,1215.00
2023-10-16T10:04:20.184Z,939.38
2023-10-16T10:05:20.160Z,832.50
2023-10-16T10:06:20.240Z,781.88
2023-10-16T10:07:20.288Z,725.62
2023-10-16T10:08:20.396Z,680.62
2023-10-16T10:09:20.457Z,579.38
2023-10-16T10:10:20.583Z,511.88
2023-10-16T10:11:28.756Z,438.75
2023-10-16T10:12:20.717Z,433.12
2023-10-16T10:13:20.787Z,500.62
2023-10-16T10:14:20.856Z,573.75
2023-10-16T10:15:20.985Z,624.38
2023-10-16T10:16:21.109Z,663.75
2023-10-16T10:17:21.196Z,725.62
2023-10-16T10:18:21.199Z,748.12
2023-10-16T10:19:21.303Z,759.38
2023-10-16T10:20:21.317Z,781.88
2023-10-16T10:21:21.441Z,804.38
2023-10-16T10:22:21.506Z,849.38
2023-10-16T10:23:21.603Z,922.50
2023-10-16T10:24:21.705Z,1001.25
2023-10-16T10:25:21.811Z,1035.00
2023-10-16T10:26:21.858Z,995.62
2023-10-16T10:27:21.962Z,905.62
2023-10-16T10:28:22.046Z,776.25
2023-10-16T10:29:22.151Z,703.12
2023-10-16T10:30:22.229Z,680.62
2023-10-16T10:31:22.292Z,708.75
2023-10-16T10:32:22.339Z,736.88
2023-10-16T10:33:22.431Z,742.50
2023-10-16T10:34:22.525Z,753.75
2023-10-16T10:35:22.621Z,781.88
2023-10-16T10:36:22.666Z,798.75
2023-10-16T10:37:22.830Z,798.75
2023-10-16T10:38:22.864Z,826.88
2023-10-16T10:39:23.400Z,826.88
2023-10-16T10:40:23.507Z,843.75
2023-10-16T10:41:23.123Z,798.75
2023-10-16T10:42:23.189Z,866.25
2023-10-16T10:43:23.272Z,950.62
2023-10-16T10:44:23.386Z,939.38
2023-10-16T10:45:23.506Z,956.25
2023-10-16T10:46:23.800Z,956.25
2023-10-16T10:47:23.606Z,900.00
2023-10-16T10:48:23.697Z,877.50
2023-10-16T10:49:23.829Z,871.88
2023-10-16T10:50:23.862Z,933.75
2023-10-16T10:51:23.917Z,945.00
2023-10-16T10:52:24.026Z,1012.50
2023-10-16T10:53:24.083Z,1113.75
2023-10-16T10:54:24.203Z,1136.25
2023-10-16T10:55:24.256Z,1445.62
2023-10-16T10:56:24.318Z,1215.00
2023-10-16T10:57:24.381Z,1260.00
2023-10-16T10:58:24.462Z,1389.38
2023-10-16T10:59:24.545Z,1361.25
2023-10-16T11:00:24.650Z,1434.38
2023-10-16T11:01:24.788Z,1158.75
2023-10-16T11:02:24.800Z,1271.25
2023-10-16T11:03:24.898Z,1288.12
2023-10-16T11:04:25.078Z,1603.12
2023-10-16T11:05:25.058Z,1513.12
2023-10-16T11:06:25.111Z,1136.25
2023-10-16T11:07:25.222Z,995.62
2023-10-16T11:08:25.245Z,905.62
2023-10-16T11:09:25.302Z,888.75
2023-10-16T11:10:25.413Z,871.88
2023-10-16T11:11:25.478Z,855.00
2023-10-16T11:12:25.662Z,849.38
2023-10-16T11:13:25.656Z,832.50
2023-10-16T11:14:25.977Z,815.62
2023-10-16T11:15:25.838Z,793.12
2023-10-16T11:16:25.972Z,776.25
2023-10-16T11:17:26.072Z,810.00
2023-10-16T11:18:26.187Z,871.88
2023-10-16T11:19:26.260Z,916.88
2023-10-16T11:20:26.238Z,883.12
2023-10-16T11:21:26.300Z,888.75
2023-10-16T11:22:26.382Z,815.62
2023-10-16T11:23:26.432Z,798.75
2023-10-16T11:24:26.861Z,883.12
2023-10-16T11:25:26.694Z,933.75
2023-10-16T11:26:26.698Z,984.38
2023-10-16T11:27:26.811Z,984.38
2023-10-16T11:28:26.869Z,961.88
2023-10-16T11:29:26.971Z,894.38
2023-10-16T11:30:27.063Z,855.00
2023-10-16T11:31:27.272Z,888.75
2023-10-16T11:32:27.735Z,900.00
2023-10-16T11:33:27.302Z,956.25
2023-10-16T11:34:27.418Z,1001.25
2023-10-16T11:35:27.469Z,1063.12
2023-10-16T11:36:29.184Z,1040.62
2023-10-16T11:37:27.656Z,877.50
2023-10-16T11:38:27.740Z,720.00
2023-10-16T11:39:27.800Z,742.50
2023-10-16T11:40:27.887Z,821.25
2023-10-16T11:41:27.992Z,916.88
2023-10-16T11:42:28.096Z,978.75
2023-10-16T11:43:28.190Z,995.62
2023-10-16T11:44:28.476Z,928.12
2023-10-16T11:45:28.317Z,871.88
2023-10-16T11:46:28.481Z,860.62
2023-10-16T11:47:28.529Z,815.62
2023-10-16T11:48:28.627Z,843.75
2023-10-16T11:49:28.691Z,860.62
2023-10-16T11:50:28.754Z,883.12
2023-10-16T11:51:28.822Z,911.25
2023-10-16T11:52:28.969Z,922.50
2023-10-16T11:53:28.988Z,905.62
2023-10-16T11:54:29.265Z,900.00
2023-10-16T11:55:29.186Z,871.88
2023-10-16T11:56:29.261Z,826.88
2023-10-16T11:57:29.384Z,686.25
2023-10-16T11:58:29.442Z,652.50
2023-10-16T11:59:30.087Z,585.00
2023-10-16T12:00:29.582Z,540.00
2023-10-16T12:01:37.997Z,545.62
2023-10-16T12:03:29.857Z,556.88
2023-10-16T12:04:30.426Z,590.62
2023-10-16T12:05:29.983Z,630.00
2023-10-16T12:06:30.096Z,646.88
2023-10-16T12:07:30.185Z,658.12
2023-10-16T12:08:30.248Z,669.38
2023-10-16T12:09:30.303Z,691.88
2023-10-16T12:10:30.404Z,770.62
2023-10-16T12:11:30.459Z,871.88
2023-10-16T12:12:30.581Z,995.62
2023-10-16T12:13:30.688Z,1102.50
2023-10-16T12:14:30.900Z,1085.62
2023-10-16T12:15:30.819Z,984.38
2023-10-16T12:16:35.814Z,877.50
2023-10-16T12:17:30.993Z,748.12
2023-10-16T12:18:31.057Z,669.38
2023-10-16T12:19:31.178Z,613.12
2023-10-16T12:20:31.227Z,573.75
2023-10-16T12:21:31.282Z,545.62
2023-10-16T12:22:31.390Z,556.88
2023-10-16T12:23:31.476Z,562.50
2023-10-16T12:24:31.587Z,517.50
2023-10-16T12:25:31.648Z,461.25
2023-10-16T12:26:31.758Z,410.62
2023-10-16T12:27:31.833Z,360.00
2023-10-16T12:28:31.940Z,337.50
2023-10-16T12:29:32.014Z,331.88
2023-10-16T12:30:32.103Z,337.50
2023-10-16T12:31:32.197Z,348.75
2023-10-16T12:32:32.276Z,354.38
2023-10-16T12:33:32.370Z,388.12
2023-10-16T12:34:32.442Z,427.50
2023-10-16T12:35:32.529Z,455.62
2023-10-16T12:36:32.623Z,483.75
2023-10-16T12:37:32.690Z,540.00
2023-10-16T12:38:32.793Z,579.38
2023-10-16T12:39:32.881Z,624.38
2023-10-16T12:40:32.958Z,663.75
2023-10-16T12:41:33.100Z,703.12
2023-10-16T12:42:33.177Z,742.50
2023-10-16T12:43:33.207Z,776.25
2023-10-16T12:44:33.313Z,810.00
2023-10-16T12:45:33.436Z,832.50
2023-10-16T12:46:33.456Z,843.75
2023-10-16T12:47:43.912Z,860.62
2023-10-16T12:48:33.704Z,866.25
2023-10-16T12:49:33.676Z,871.88
2023-10-16T12:50:33.733Z,877.50
2023-10-16T12:51:33.872Z,883.12
2023-10-16T12:52:33.918Z,877.50
2023-10-16T12:53:33.962Z,871.88
2023-10-16T12:54:34.176Z,877.50
2023-10-16T12:55:34.148Z,900.00
2023-10-16T12:56:34.229Z,916.88
2023-10-16T12:57:34.303Z,950.62
2023-10-16T12:58:34.379Z,967.50
2023-10-16T12:59:34.482Z,967.50
2023-10-16T13:00:34.630Z,945.00
2023-10-16T13:01:34.653Z,916.88
2023-10-16T13:02:34.785Z,894.38
2023-10-16T13:03:35.365Z,883.12
2023-10-16T13:04:35.007Z,866.25
2023-10-16T13:05:35.011Z,838.12
2023-10-16T13:06:35.077Z,804.38
2023-10-16T13:07:42.336Z,781.88
2023-10-16T13:08:35.266Z,793.12
2023-10-16T13:09:35.307Z,815.62
2023-10-16T13:10:35.393Z,826.88
2023-10-16T13:11:35.460Z,849.38
2023-10-16T13:12:35.553Z,888.75
2023-10-16T13:13:35.592Z,888.75
2023-10-16T13:14:35.714Z,855.00
2023-10-16T13:15:35.796Z,810.00
2023-10-16T13:16:35.849Z,759.38
2023-10-16T13:17:35.980Z,736.88
2023-10-16T13:18:36.026Z,731.25
2023-10-16T13:19:36.074Z,731.25
2023-10-16T13:20:36.201Z,731.25
2023-10-16T13:21:36.461Z,725.62
2023-10-16T13:22:36.342Z,725.62
2023-10-16T13:23:46.154Z,720.00
2023-10-16T13:24:36.587Z,691.88
2023-10-16T13:25:36.626Z,663.75
2023-10-16T13:26:36.730Z,658.12
2023-10-16T13:27:36.819Z,663.75
2023-10-16T13:28:36.901Z,658.12
2023-10-16T13:29:36.956Z,663.75
2023-10-16T13:30:37.166Z,658.12
2023-10-16T13:31:37.140Z,635.62
2023-10-16T13:32:37.260Z,624.38
2023-10-16T13:33:37.321Z,607.50
2023-10-16T13:34:37.400Z,613.12
2023-10-16T13:35:37.421Z,618.75
2023-10-16T13:36:37.744Z,613.12
2023-10-16T13:37:37.607Z,624.38
2023-10-16T13:38:37.683Z,630.00
2023-10-16T13:39:37.797Z,635.62
2023-10-16T13:40:37.878Z,630.00
2023-10-16T13:41:38.361Z,624.38
2023-10-16T13:42:38.161Z,613.12
2023-10-16T13:43:38.163Z,618.75
2023-10-16T13:44:38.249Z,624.38
2023-10-16T13:45:38.332Z,624.38
2023-10-16T13:46:38.517Z,601.88
2023-10-16T13:47:38.520Z,579.38
2023-10-16T13:48:38.605Z,568.12
2023-10-16T13:49:38.772Z,573.75
2023-10-16T13:50:38.727Z,562.50
2023-10-16T13:51:38.933Z,540.00
2023-10-16T13:52:38.887Z,523.12
2023-10-16T13:53:38.972Z,506.25
2023-10-16T13:54:39.034Z,483.75
2023-10-16T13:55:39.105Z,461.25
2023-10-16T13:56:39.214Z,433.12
2023-10-16T13:57:39.282Z,399.38
2023-10-16T13:58:39.352Z,388.12
2023-10-16T13:59:39.435Z,376.88
2023-10-16T14:00:39.833Z,376.88
2023-10-16T14:01:39.670Z,388.12
2023-10-16T14:02:39.783Z,405.00
2023-10-16T14:03:39.857Z,421.88
2023-10-16T14:04:39.915Z,433.12
2023-10-16T14:05:40.075Z,433.12
2023-10-16T14:06:40.107Z,427.50
2023-10-16T14:07:40.128Z,421.88
2023-10-16T14:08:40.214Z,427.50
2023-10-16T14:09:40.332Z,450.00
2023-10-16T14:10:40.421Z,461.25
2023-10-16T14:11:40.531Z,472.50
2023-10-16T14:12:40.576Z,455.62
2023-10-16T14:13:40.641Z,438.75
2023-10-16T14:14:40.714Z,410.62
2023-10-16T14:15:40.853Z,399.38
2023-10-16T14:16:40.945Z,399.38
2023-10-16T14:17:40.988Z,410.62
2023-10-16T14:18:41.049Z,410.62
2023-10-16T14:19:41.133Z,405.00
2023-10-16T14:20:41.218Z,405.00
2023-10-16T14:21:41.348Z,405.00
2023-10-16T14:22:41.376Z,399.38
2023-10-16T14:23:41.450Z,393.75
2023-10-16T14:24:41.533Z,393.75
2023-10-16T14:25:41.592Z,399.38
2023-10-16T14:26:41.683Z,410.62
2023-10-16T14:27:41.773Z,399.38
2023-10-16T14:28:41.852Z,388.12
2023-10-16T14:29:41.954Z,382.50
2023-10-16T14:30:49.183Z,371.25
2023-10-16T14:31:42.233Z,360.00
2023-10-16T14:32:42.185Z,360.00
2023-10-16T14:33:42.321Z,360.00
2023-10-16T14:34:42.340Z,360.00
2023-10-16T14:35:42.404Z,354.38
2023-10-16T14:36:42.492Z,337.50
2023-10-16T14:37:42.643Z,337.50
2023-10-16T14:38:42.688Z,343.12
2023-10-16T14:39:42.740Z,343.12
2023-10-16T14:40:42.820Z,337.50
2023-10-16T14:41:42.901Z,331.88
2023-10-16T14:42:42.998Z,326.25
2023-10-16T14:43:43.073Z,320.62
2023-10-16T14:44:43.175Z,326.25
2023-10-16T14:45:43.285Z,331.88
2023-10-16T14:46:43.384Z,331.88
2023-10-16T14:47:43.503Z,337.50
2023-10-16T14:48:43.657Z,354.38
2023-10-16T14:49:43.652Z,365.62
2023-10-16T14:50:43.689Z,376.88
2023-10-16T14:51:43.800Z,388.12
2023-10-16T14:52:43.836Z,393.75
2023-10-16T14:53:43.919Z,399.38
2023-10-16T14:54:44.061Z,410.62
2023-10-16T14:55:44.133Z,410.62
2023-10-16T14:56:44.167Z,405.00
2023-10-16T14:58:00.251Z,399.38
2023-10-16T14:59:14.212Z,399.38
2023-10-16T14:59:44.418Z,393.75
2023-10-16T15:00:44.514Z,382.50
2023-10-16T15:01:44.740Z,371.25
2023-10-16T15:02:44.703Z,365.62
2023-10-16T15:03:44.881Z,360.00
2023-10-16T15:04:46.222Z,354.38
2023-10-16T15:05:44.907Z,354.38
2023-10-16T15:06:45.023Z,348.75
2023-10-16T15:07:45.036Z,348.75
2023-10-16T15:08:45.123Z,337.50
2023-10-16T15:09:45.246Z,326.25
2023-10-16T15:10:53.314Z,326.25
2023-10-16T15:11:45.375Z,337.50
2023-10-16T15:12:45.483Z,343.12
2023-10-16T15:13:45.544Z,337.50
2023-10-16T15:14:45.652Z,326.25
2023-10-16T15:15:45.798Z,315.00
2023-10-16T15:16:45.799Z,309.38
2023-10-16T15:17:45.981Z,309.38
2023-10-16T15:18:46.029Z,303.75
2023-10-16T15:19:46.051Z,298.12
2023-10-16T15:20:46.126Z,292.50
2023-10-16T15:21:46.235Z,281.25
2023-10-16T15:22:46.305Z,275.62
2023-10-16T15:23:46.404Z,270.00
2023-10-16T15:24:46.486Z,264.38
2023-10-16T15:25:46.575Z,258.75
2023-10-16T15:26:46.616Z,247.50
2023-10-16T15:27:46.711Z,241.88
2023-10-16T15:28:46.947Z,236.25
2023-10-16T15:29:46.886Z,230.62
2023-10-16T15:30:47.011Z,225.00
2023-10-16T15:31:47.194Z,213.75
2023-10-16T15:32:47.235Z,213.75
2023-10-16T15:33:47.244Z,202.50
2023-10-16T15:34:47.296Z,196.88
2023-10-16T15:35:47.367Z,191.25
2023-10-16T15:36:47.492Z,185.62
2023-10-16T15:37:47.520Z,185.62
2023-10-16T15:38:47.608Z,180.00
2023-10-16T15:39:47.706Z,174.38
2023-10-16T15:40:47.789Z,168.75
2023-10-16T15:41:47.864Z,163.12
2023-10-16T15:42:48.005Z,163.12
2023-10-16T15:43:52.477Z,157.50
2023-10-16T15:44:48.123Z,151.88
2023-10-16T15:45:48.273Z,151.88
2023-10-16T15:46:48.334Z,146.25
2023-10-16T15:47:48.374Z,140.62
2023-10-16T15:48:48.492Z,140.62
2023-10-16T15:49:48.532Z,135.00
2023-10-16T15:50:48.803Z,129.38
2023-10-16T15:51:48.782Z,123.75
2023-10-16T15:52:48.806Z,118.12
2023-10-16T15:53:48.889Z,112.50
2023-10-16T15:54:49.004Z,106.88
2023-10-16T15:55:49.078Z,106.88
2023-10-16T15:56:49.185Z,106.88
2023-10-16T15:57:49.248Z,101.25
2023-10-16T15:58:49.333Z,101.25
2023-10-16T15:59:49.384Z,95.62
2023-10-16T16:00:49.633Z,95.62
2023-10-16T16:01:49.720Z,95.62
2023-10-16T16:02:49.692Z,95.62
2023-10-16T16:03:49.802Z,90.00
2023-10-16T16:04:49.859Z,84.38
2023-10-16T16:05:49.898Z,84.38
2023-10-16T16:06:49.989Z,78.75
2023-10-16T16:07:50.055Z,73.12
2023-10-16T16:08:50.154Z,67.50
2023-10-16T16:09:50.239Z,67.50
2023-10-16T16:10:50.348Z,61.88
2023-10-16T16:11:50.358Z,56.25
2023-10-16T16:12:50.567Z,56.25
2023-10-16T16:13:50.564Z,50.62
2023-10-16T16:14:50.592Z,45.00
2023-10-16T16:15:50.680Z,45.00
2023-10-16T16:16:50.747Z,45.00
2023-10-16T16:17:50.815Z,39.38
2023-10-16T16:18:50.921Z,39.38
2023-10-16T16:19:50.963Z,33.75
2023-10-16T16:20:51.037Z,33.75
2023-10-16T16:21:51.143Z,28.12
2023-10-16T16:22:51.230Z,28.12
2023-10-16T16:23:51.311Z,28.12
2023-10-16T16:24:51.457Z,22.50
2023-10-16T16:25:51.459Z,22.50
2023-10-16T16:26:51.560Z,16.88
2023-10-16T16:27:51.619Z,16.88
2023-10-16T16:28:51.792Z,16.88
2023-10-16T16:29:51.785Z,16.88
2023-10-16T16:30:51.824Z,11.25
2023-10-16T16:31:51.909Z,11.25
2023-10-16T16:32:52.006Z,11.25
2023-10-16T16:33:52.037Z,11.25
2023-10-16T16:34:52.150Z,5.62
2023-10-16T16:35:52.282Z,5.62
2023-10-16T16:36:52.308Z,5.62
2023-10-16T16:37:52.364Z,5.62
2023-10-16T16:38:52.508Z,5.62
2023-10-16T16:39:52.555Z,5.62
2023-10-16T16:40:52.640Z,5.62
2023-10-16T16:41:52.732Z,0.00
2023-10-16T16:42:52.787Z,0.00
2023-10-16T16:43:52.864Z,0.00
2023-10-16T16:44:53.039Z,0.00
2023-10-16T16:45:53.063Z,0.00
2023-10-16T16:46:53.107Z,0.00
2023-10-16T16:47:53.227Z,0.00
2023-10-16T16:48:53.284Z,0.00
2023-10-16T16:49:53.336Z,0.00
2023-10-16T16:50:53.386Z,0.00
2023-10-16T16:51:53.470Z,0.00
2023-10-16T16:52:53.550Z,0.00
2023-10-16T16:53:53.654Z,0.00
2023-10-16T16:54:53.697Z,0.00
2023-10-16T16:55:53.794Z,0.00
2023-10-16T16:56:53.857Z,0.00
2023-10-16T16:57:53.925Z,0.00
